Time;durP1;ratioP1;P1;durP2;ratioP2;P2;SDS_P1;SDS_P2;PMS_P1;PMS_P2;Temp;Humidity;BMP_temperature;BMP_pressure;BME280_temperature;BME280_humidity;BME280_pressure;Samples;Min_cycle;Max_cycle;Signal;HPM_P1;HPM_P2
2023/03/17 00:00:15;;;;;;;5.18;1.75;;;12.20;99.90;;;;;;4951133;28;20481;-85
2023/03/17 00:02:42;;;;;;;5.25;1.60;;;12.10;99.90;;;;;;4950783;28;20114;-86
2023/03/17 00:05:14;;;;;;;6.13;2.00;;;12.10;99.90;;;;;;4951564;28;20107;-86
2023/03/17 00:07:40;;;;;;;4.15;1.38;;;12.10;99.90;;;;;;4950246;28;20063;-86
2023/03/17 00:10:12;;;;;;;7.50;2.35;;;12.00;99.90;;;;;;4951463;28;20066;-85
2023/03/17 00:12:38;;;;;;;6.43;1.50;;;12.00;99.90;;;;;;4951777;28;20028;-85
2023/03/17 00:15:04;;;;;;;6.65;2.00;;;12.00;99.90;;;;;;4951294;28;20031;-86
2023/03/17 00:17:30;;;;;;;5.43;1.77;;;12.10;99.90;;;;;;4951349;28;20023;-86
2023/03/17 00:19:56;;;;;;;4.10;1.58;;;12.10;99.90;;;;;;4951679;28;20035;-85
2023/03/17 00:22:21;;;;;;;6.10;1.30;;;12.00;99.90;;;;;;4951261;28;20016;-85
2023/03/17 00:24:47;;;;;;;5.00;1.63;;;12.00;99.90;;;;;;4951323;28;20089;-86
2023/03/17 00:27:13;;;;;;;6.05;2.17;;;11.90;99.90;;;;;;4950787;28;20027;-86
2023/03/17 00:29:39;;;;;;;4.68;1.83;;;12.00;99.90;;;;;;4951121;28;20020;-85
2023/03/17 00:32:14;;;;;;;6.75;1.85;;;11.80;99.90;;;;;;4950146;28;20027;-86
2023/03/17 00:34:40;;;;;;;5.05;1.60;;;11.80;99.90;;;;;;4951168;28;20034;-86
2023/03/17 00:37:11;;;;;;;5.90;1.83;;;11.80;99.90;;;;;;4951484;28;20084;-85
2023/03/17 00:39:38;;;;;;;6.53;1.60;;;11.80;99.90;;;;;;4951066;28;20039;-86
2023/03/17 00:42:05;;;;;;;5.25;1.48;;;11.60;99.90;;;;;;4950631;28;20031;-86
2023/03/17 00:44:33;;;;;;;5.10;1.58;;;11.60;99.90;;;;;;4943219;28;20092;-85
2023/03/17 00:47:00;;;;;;;6.75;1.73;;;11.70;99.90;;;;;;4950993;28;20031;-86
2023/03/17 00:49:26;;;;;;;7.20;1.77;;;11.60;99.90;;;;;;4951101;28;20038;-86
2023/03/17 00:51:53;;;;;;;6.90;1.67;;;11.70;99.90;;;;;;4950685;28;20051;-86
2023/03/17 00:54:19;;;;;;;2.97;1.38;;;11.60;99.90;;;;;;4951079;28;20374;-86
2023/03/17 00:56:47;;;;;;;4.40;1.90;;;11.60;99.90;;;;;;4950855;28;20039;-86
2023/03/17 00:59:34;;;;;;;4.18;1.58;;;11.70;99.90;;;;;;4950760;28;20062;-86
2023/03/17 01:02:00;;;;;;;5.00;1.52;;;11.60;99.90;;;;;;4951212;28;20027;-86
2023/03/17 01:04:26;;;;;;;4.63;1.80;;;11.70;99.90;;;;;;4950691;28;20043;-85
2023/03/17 01:06:52;;;;;;;6.72;1.73;;;11.70;99.90;;;;;;4950846;28;20024;-85
2023/03/17 01:09:20;;;;;;;6.90;1.60;;;11.70;99.90;;;;;;4950599;28;20101;-86
2023/03/17 01:11:47;;;;;;;6.57;1.65;;;11.80;99.90;;;;;;4950341;28;20019;-85
2023/03/17 01:14:14;;;;;;;6.10;1.30;;;11.70;99.90;;;;;;4953544;28;20404;-85
2023/03/17 01:16:39;;;;;;;6.70;2.13;;;11.70;99.90;;;;;;4954125;28;20029;-85
2023/03/17 01:19:05;;;;;;;4.60;1.60;;;11.70;99.90;;;;;;4953086;28;20035;-86
2023/03/17 01:21:31;;;;;;;3.80;1.40;;;11.80;99.90;;;;;;4953877;28;20023;-85
2023/03/17 01:23:57;;;;;;;6.10;1.90;;;11.80;99.90;;;;;;4953899;28;20066;-86
2023/03/17 01:26:23;;;;;;;3.85;1.98;;;11.80;99.90;;;;;;4954395;28;20027;-86
2023/03/17 01:28:48;;;;;;;4.28;1.30;;;11.80;99.90;;;;;;4952810;29;20098;-86
2023/03/17 01:31:14;;;;;;;4.18;1.40;;;11.80;99.90;;;;;;4953728;28;20172;-85
2023/03/17 01:33:40;;;;;;;7.55;1.30;;;11.90;99.90;;;;;;4953690;28;20061;-85
2023/03/17 01:36:06;;;;;;;6.65;1.67;;;11.90;99.90;;;;;;4953870;28;20051;-86
2023/03/17 01:38:31;;;;;;;3.33;1.63;;;11.90;99.90;;;;;;4953767;28;20043;-86
2023/03/17 01:40:57;;;;;;;4.50;1.50;;;11.90;99.90;;;;;;4954300;28;20108;-86
2023/03/17 01:43:30;;;;;;;4.57;1.40;;;11.90;99.90;;;;;;4950527;28;20404;-86
2023/03/17 01:46:21;;;;;;;6.07;1.67;;;11.80;99.90;;;;;;4949385;29;20039;-85
2023/03/17 01:49:20;;;;;;;4.15;1.65;;;11.80;99.90;;;;;;4953812;28;20050;-86
2023/03/17 01:52:02;;;;;;;4.63;1.50;;;11.90;99.90;;;;;;4952526;28;20496;-86
2023/03/17 01:54:45;;;;;;;4.38;1.20;;;11.90;99.90;;;;;;4952023;28;20118;-86
2023/03/17 01:57:27;;;;;;;3.58;1.50;;;12.00;99.90;;;;;;4953372;28;20095;-86
2023/03/17 02:00:06;;;;;;;3.97;1.30;;;12.00;99.90;;;;;;4953293;28;20114;-86
2023/03/17 02:02:36;;;;;;;4.70;1.30;;;11.90;99.90;;;;;;4953677;28;20023;-86
2023/03/17 02:05:08;;;;;;;6.18;1.58;;;11.90;99.90;;;;;;4953272;28;20059;-85
2023/03/17 02:07:35;;;;;;;3.97;1.33;;;12.00;99.90;;;;;;4953273;28;20024;-85
2023/03/17 02:10:03;;;;;;;5.15;1.45;;;11.90;99.90;;;;;;4951620;29;20118;-86
2023/03/17 02:12:29;;;;;;;3.22;1.17;;;11.90;99.90;;;;;;4953167;28;20366;-85
2023/03/17 02:14:55;;;;;;;7.18;1.63;;;11.90;99.90;;;;;;4953203;28;20077;-86
2023/03/17 02:17:22;;;;;;;3.47;1.13;;;12.00;99.90;;;;;;4953106;28;20035;-85
2023/03/17 02:19:49;;;;;;;5.00;1.35;;;12.00;99.90;;;;;;4953826;28;20024;-86
2023/03/17 02:22:17;;;;;;;3.72;1.38;;;11.90;99.90;;;;;;4952631;28;20493;-85
2023/03/17 02:24:50;;;;;;;5.13;1.70;;;11.80;99.90;;;;;;4952270;28;20039;-86
2023/03/17 02:27:18;;;;;;;4.97;1.50;;;11.80;99.90;;;;;;4951804;28;20038;-86
2023/03/17 02:29:45;;;;;;;4.63;1.70;;;11.80;99.90;;;;;;4952890;28;20496;-85
2023/03/17 02:32:12;;;;;;;4.55;1.40;;;11.80;99.90;;;;;;4953079;28;20130;-85
2023/03/17 02:34:38;;;;;;;6.05;1.23;;;11.80;99.90;;;;;;4953095;28;20488;-86
2023/03/17 02:37:06;;;;;;;4.68;1.60;;;11.80;99.90;;;;;;4952803;28;20035;-86
2023/03/17 02:39:32;;;;;;;4.53;1.33;;;11.80;99.90;;;;;;4952474;28;20047;-86
2023/03/17 02:41:59;;;;;;;3.00;1.38;;;11.70;99.90;;;;;;4952686;28;20559;-85
2023/03/17 02:44:24;;;;;;;3.47;1.20;;;11.70;99.90;;;;;;4943741;28;20035;-86
2023/03/17 02:46:50;;;;;;;5.18;1.80;;;11.60;99.90;;;;;;4952672;28;20414;-85
2023/03/17 02:49:17;;;;;;;3.85;1.15;;;11.60;99.90;;;;;;4951385;28;20027;-85
2023/03/17 02:51:43;;;;;;;4.03;1.40;;;11.60;99.90;;;;;;4953131;28;20051;-85
2023/03/17 02:54:09;;;;;;;3.55;1.40;;;11.50;99.90;;;;;;4952185;28;20030;-86
2023/03/17 02:56:35;;;;;;;5.22;1.50;;;11.60;99.90;;;;;;4952729;28;20031;-86
2023/03/17 02:59:01;;;;;;;2.30;1.30;;;11.60;99.90;;;;;;4952703;28;20023;-86
2023/03/17 03:01:28;;;;;;;4.80;1.20;;;11.40;99.90;;;;;;4952302;28;20446;-85
2023/03/17 03:03:54;;;;;;;2.72;1.25;;;11.50;99.90;;;;;;4952397;28;20066;-86
2023/03/17 03:06:19;;;;;;;3.90;1.20;;;11.60;99.90;;;;;;4952341;28;20085;-86
2023/03/17 03:08:45;;;;;;;4.65;1.60;;;11.50;99.90;;;;;;4952479;28;20404;-85
2023/03/17 03:11:11;;;;;;;3.00;1.40;;;11.40;99.90;;;;;;4952284;28;20073;-86
2023/03/17 03:13:37;;;;;;;5.45;1.30;;;11.40;99.90;;;;;;4952216;28;20030;-86
2023/03/17 03:16:04;;;;;;;4.68;1.60;;;11.30;99.90;;;;;;4952318;28;20032;-86
2023/03/17 03:18:30;;;;;;;3.22;1.23;;;11.20;99.90;;;;;;4950942;28;20726;-86
2023/03/17 03:20:55;;;;;;;3.45;1.38;;;11.20;99.90;;;;;;4952048;28;20106;-85
2023/03/17 03:23:21;;;;;;;3.80;1.15;;;11.20;99.90;;;;;;4951743;28;20114;-85
2023/03/17 03:25:47;;;;;;;2.78;1.55;;;11.20;99.90;;;;;;4952072;28;20360;-86
2023/03/17 03:28:12;;;;;;;4.65;1.38;;;11.10;99.90;;;;;;4952018;28;20028;-86
2023/03/17 03:30:38;;;;;;;5.10;1.20;;;11.00;99.90;;;;;;4951985;28;20031;-85
2023/03/17 03:33:05;;;;;;;3.55;1.40;;;11.00;99.90;;;;;;4951867;28;20382;-85
2023/03/17 03:35:31;;;;;;;6.10;1.60;;;11.00;99.90;;;;;;4950210;29;20443;-86
2023/03/17 03:37:57;;;;;;;5.30;1.33;;;11.00;99.90;;;;;;4951272;28;20089;-94
2023/03/17 03:40:23;;;;;;;4.13;1.40;;;11.00;99.90;;;;;;4953625;28;20496;-95
2023/03/17 03:42:49;;;;;;;3.88;1.50;;;10.90;99.90;;;;;;4952592;28;20035;-95
2023/03/17 03:45:16;;;;;;;3.20;1.15;;;11.00;99.90;;;;;;4945731;28;20373;-95
2023/03/17 03:47:42;;;;;;;3.17;1.13;;;11.00;99.90;;;;;;4954093;28;20145;-94
2023/03/17 03:50:09;;;;;;;3.97;1.40;;;11.10;99.90;;;;;;4952389;28;20537;-95
2023/03/17 03:52:35;;;;;;;4.57;1.20;;;10.90;99.90;;;;;;4953234;28;20031;-94
2023/03/17 03:55:01;;;;;;;3.72;1.33;;;10.80;99.90;;;;;;4952408;28;20489;-94
2023/03/17 03:57:26;;;;;;;1.83;1.10;;;10.90;99.90;;;;;;4952531;28;20038;-94
2023/03/17 03:59:52;;;;;;;4.50;1.42;;;10.90;99.90;;;;;;4953998;28;20509;-94
2023/03/17 04:02:18;;;;;;;2.78;1.15;;;10.80;99.90;;;;;;4952296;28;20039;-94
2023/03/17 04:04:44;;;;;;;4.18;1.20;;;10.80;99.90;;;;;;4953024;28;20036;-95
2023/03/17 04:07:10;;;;;;;3.13;1.30;;;10.80;99.90;;;;;;4953518;28;20031;-94
2023/03/17 04:09:36;;;;;;;5.00;1.20;;;10.90;99.90;;;;;;4953836;28;20019;-95
2023/03/17 04:12:02;;;;;;;4.35;1.20;;;10.90;99.90;;;;;;4952082;28;20111;-95
2023/03/17 04:14:28;;;;;;;3.67;1.17;;;11.00;99.90;;;;;;4953150;28;20477;-94
2023/03/17 04:16:54;;;;;;;4.47;1.30;;;11.00;99.90;;;;;;4952131;28;20081;-95
2023/03/17 04:19:22;;;;;;;3.47;1.17;;;10.90;99.90;;;;;;4952941;28;20033;-94
2023/03/17 04:21:48;;;;;;;3.30;1.30;;;10.90;99.90;;;;;;4953208;28;20051;-94
2023/03/17 04:24:14;;;;;;;2.63;1.10;;;10.90;99.90;;;;;;4952309;28;20070;-95
2023/03/17 04:26:40;;;;;;;1.88;1.30;;;10.90;99.90;;;;;;4952293;28;20116;-94
2023/03/17 04:29:07;;;;;;;5.05;1.25;;;10.90;99.90;;;;;;4952067;28;20038;-95
2023/03/17 04:31:34;;;;;;;4.38;1.33;;;10.90;99.90;;;;;;4951926;28;20038;-95
2023/03/17 04:34:00;;;;;;;3.03;1.20;;;10.90;99.90;;;;;;4953230;28;20038;-95
2023/03/17 04:36:26;;;;;;;3.55;1.02;;;10.90;99.90;;;;;;4953846;28;20027;-95
2023/03/17 04:38:52;;;;;;;4.57;1.38;;;10.90;99.90;;;;;;4953689;28;20031;-95
2023/03/17 04:41:18;;;;;;;4.45;1.35;;;11.00;99.90;;;;;;4952464;28;20031;-95
2023/03/17 04:43:44;;;;;;;3.75;1.10;;;10.90;99.90;;;;;;4953213;28;20036;-96
2023/03/17 04:46:10;;;;;;;2.97;1.10;;;10.90;99.90;;;;;;4953066;28;20067;-95
2023/03/17 04:48:36;;;;;;;7.60;1.30;;;10.80;99.90;;;;;;4954540;28;20051;-96
2023/03/17 04:51:02;;;;;;;2.65;1.05;;;10.70;99.90;;;;;;4956598;28;20055;-95
2023/03/17 04:53:27;;;;;;;3.70;1.17;;;10.80;99.90;;;;;;4955639;28;20038;-96
2023/03/17 04:55:53;;;;;;;2.72;1.10;;;10.80;99.90;;;;;;4955862;28;20032;-95
2023/03/17 04:58:19;;;;;;;3.33;1.20;;;10.80;99.90;;;;;;4955655;28;20030;-95
2023/03/17 05:00:44;;;;;;;4.78;1.60;;;10.80;99.90;;;;;;4955406;28;20028;-95
2023/03/17 05:03:10;;;;;;;2.00;1.20;;;10.80;99.90;;;;;;4956296;28;20103;-95
2023/03/17 05:05:36;;;;;;;2.95;1.15;;;10.80;99.90;;;;;;4955387;28;20031;-96
2023/03/17 05:08:02;;;;;;;5.28;1.33;;;10.80;99.90;;;;;;4954585;28;20028;-96
2023/03/17 05:10:28;;;;;;;2.00;1.00;;;10.80;99.90;;;;;;4954663;28;20045;-95
2023/03/17 05:12:54;;;;;;;4.15;1.08;;;10.80;99.90;;;;;;4954855;28;20038;-95
2023/03/17 05:15:20;;;;;;;3.47;1.33;;;10.70;99.90;;;;;;4954764;28;20023;-95
2023/03/17 05:17:46;;;;;;;5.78;1.15;;;10.70;99.90;;;;;;4956025;28;20027;-95
2023/03/17 05:20:12;;;;;;;2.80;1.20;;;10.70;99.90;;;;;;4955522;28;20374;-94
2023/03/17 05:22:37;;;;;;;3.58;0.85;;;10.70;99.90;;;;;;4954772;29;20182;-95
2023/03/17 05:25:08;;;;;;;3.60;1.00;;;10.70;99.90;;;;;;4955801;29;20130;-95
2023/03/17 05:27:33;;;;;;;9.23;1.90;;;10.60;99.90;;;;;;4938535;29;20024;-94
2023/03/17 05:29:59;;;;;;;4.40;0.98;;;10.70;99.90;;;;;;4955969;28;20420;-95
2023/03/17 05:32:25;;;;;;;1.98;1.10;;;10.60;99.90;;;;;;4954386;29;20058;-94
2023/03/17 05:34:50;;;;;;;2.60;1.10;;;10.70;99.90;;;;;;4954484;29;20031;-94
2023/03/17 05:37:16;;;;;;;3.47;1.13;;;10.70;99.90;;;;;;4954172;29;20023;-94
2023/03/17 05:39:42;;;;;;;3.30;1.13;;;10.70;99.90;;;;;;4955246;28;20058;-94
2023/03/17 05:42:08;;;;;;;4.30;1.17;;;10.80;99.90;;;;;;4955769;28;20102;-95
2023/03/17 05:44:34;;;;;;;3.67;1.15;;;10.70;99.90;;;;;;4946325;28;20043;-94
2023/03/17 05:46:59;;;;;;;2.70;1.10;;;10.80;99.90;;;;;;4954217;28;20049;-95
2023/03/17 05:49:27;;;;;;;4.10;1.30;;;10.70;99.90;;;;;;4954135;28;20173;-95
2023/03/17 05:51:53;;;;;;;2.17;1.10;;;10.70;99.90;;;;;;4955345;28;20130;-94
2023/03/17 05:54:18;;;;;;;4.40;1.20;;;10.70;99.90;;;;;;4955121;28;20051;-95
2023/03/17 05:56:44;;;;;;;3.42;1.10;;;10.70;99.90;;;;;;4954354;28;20055;-95
2023/03/17 05:59:13;;;;;;;2.92;1.30;;;10.70;99.90;;;;;;4954414;28;20034;-95
2023/03/17 06:01:39;;;;;;;2.55;1.38;;;10.70;99.90;;;;;;4955008;28;20058;-95
2023/03/17 06:04:05;;;;;;;2.20;1.00;;;10.60;99.90;;;;;;4954384;28;20039;-95
2023/03/17 06:06:31;;;;;;;4.00;1.10;;;10.70;99.90;;;;;;4954039;28;20069;-95
2023/03/17 06:08:56;;;;;;;5.55;1.20;;;10.70;99.90;;;;;;4954384;28;20126;-95
2023/03/17 06:11:22;;;;;;;2.63;1.27;;;10.70;99.90;;;;;;4954914;28;20028;-95
2023/03/17 06:13:48;;;;;;;3.03;1.33;;;10.70;99.90;;;;;;4954138;28;20106;-96
2023/03/17 06:16:14;;;;;;;2.20;1.15;;;10.70;99.90;;;;;;4954702;28;20023;-95
2023/03/17 06:18:40;;;;;;;2.28;1.25;;;10.60;99.90;;;;;;4954912;28;20051;-95
2023/03/17 06:21:06;;;;;;;3.00;1.10;;;10.70;99.90;;;;;;4955738;28;20027;-95
2023/03/17 06:23:31;;;;;;;6.93;1.20;;;10.70;99.90;;;;;;4955158;28;20084;-95
2023/03/17 06:25:57;;;;;;;5.50;1.40;;;10.70;99.90;;;;;;4954771;28;20435;-95
2023/03/17 06:28:23;;;;;;;6.40;1.40;;;10.80;99.90;;;;;;4954883;28;20027;-96
2023/03/17 06:30:49;;;;;;;2.97;1.20;;;10.70;99.90;;;;;;4953229;28;20061;-96
2023/03/17 06:33:16;;;;;;;3.50;1.20;;;10.80;99.90;;;;;;4954373;28;20118;-95
2023/03/17 06:35:42;;;;;;;2.13;1.10;;;10.80;99.90;;;;;;4954604;28;20058;-96
2023/03/17 06:38:08;;;;;;;3.63;1.30;;;10.80;99.90;;;;;;4954846;28;20701;-95
2023/03/17 06:40:34;;;;;;;3.78;1.40;;;10.90;99.90;;;;;;4954769;28;20110;-95
2023/03/17 06:43:00;;;;;;;2.35;1.00;;;10.80;99.90;;;;;;4953955;28;20042;-95
2023/03/17 06:45:26;;;;;;;3.42;1.48;;;10.80;99.90;;;;;;4945209;28;20035;-95
2023/03/17 06:47:52;;;;;;;3.70;1.38;;;10.80;99.90;;;;;;4954351;28;20024;-95
2023/03/17 06:50:18;;;;;;;5.25;1.38;;;10.90;99.90;;;;;;4953056;29;20051;-95
2023/03/17 06:52:43;;;;;;;4.30;1.45;;;11.00;99.90;;;;;;4954406;28;20114;-95
2023/03/17 06:55:09;;;;;;;4.50;1.60;;;11.00;99.90;;;;;;4953373;28;20031;-95
2023/03/17 06:57:36;;;;;;;3.22;1.25;;;11.00;99.90;;;;;;4953873;28;20059;-96
2023/03/17 07:00:05;;;;;;;3.28;1.20;;;11.10;99.90;;;;;;4954018;28;20027;-95
2023/03/17 07:02:32;;;;;;;3.90;1.15;;;11.10;99.90;;;;;;4954289;28;20101;-95
2023/03/17 07:04:59;;;;;;;3.38;1.42;;;11.20;99.90;;;;;;4954558;28;20489;-95
2023/03/17 07:07:27;;;;;;;8.25;1.38;;;11.20;99.90;;;;;;4954247;28;20397;-95
2023/03/17 07:09:53;;;;;;;3.28;1.20;;;11.30;99.90;;;;;;4954173;28;20027;-94
2023/03/17 07:12:20;;;;;;;4.63;1.23;;;11.30;99.90;;;;;;4952831;28;20034;-95
2023/03/17 07:14:46;;;;;;;5.10;1.55;;;11.30;99.90;;;;;;4954038;28;20047;-95
2023/03/17 07:17:13;;;;;;;2.92;1.38;;;11.40;99.90;;;;;;4953000;28;20028;-95
2023/03/17 07:19:40;;;;;;;2.22;1.05;;;11.50;99.90;;;;;;4954098;28;20042;-96
2023/03/17 07:22:07;;;;;;;3.78;1.20;;;11.50;99.90;;;;;;4953382;28;20024;-96
2023/03/17 07:24:32;;;;;;;4.05;1.40;;;11.60;99.90;;;;;;4951639;28;20043;-84
2023/03/17 07:26:58;;;;;;;1.85;1.30;;;11.80;99.90;;;;;;4951807;28;20069;-84
2023/03/17 07:29:24;;;;;;;3.67;1.50;;;11.90;99.90;;;;;;4951506;28;20456;-85
2023/03/17 07:31:50;;;;;;;2.75;1.23;;;11.90;99.90;;;;;;4950722;28;20051;-84
2023/03/17 07:34:16;;;;;;;2.75;1.13;;;12.00;99.90;;;;;;4951471;28;20061;-83
2023/03/17 07:36:42;;;;;;;2.33;1.20;;;12.00;99.90;;;;;;4952713;28;20023;-85
2023/03/17 07:39:09;;;;;;;3.10;1.13;;;12.10;99.90;;;;;;4949938;28;20467;-84
2023/03/17 07:41:35;;;;;;;2.75;1.40;;;12.10;99.90;;;;;;4948641;28;20031;-84
2023/03/17 07:44:02;;;;;;;4.75;1.30;;;12.10;99.90;;;;;;4949831;29;20101;-85
2023/03/17 07:46:28;;;;;;;1.98;1.17;;;12.20;99.90;;;;;;4938811;29;20395;-85
2023/03/17 07:48:54;;;;;;;3.13;1.17;;;12.20;99.90;;;;;;4952124;29;20070;-86
2023/03/17 07:51:22;;;;;;;2.30;1.20;;;12.30;99.90;;;;;;4951910;28;20109;-84
2023/03/17 07:53:51;;;;;;;2.75;1.20;;;12.30;99.90;;;;;;4951974;28;20031;-84
2023/03/17 07:56:16;;;;;;;2.20;1.25;;;12.40;99.90;;;;;;4950094;28;20038;-85
2023/03/17 07:58:42;;;;;;;2.80;1.33;;;12.50;99.90;;;;;;4951730;28;20455;-87
2023/03/17 08:01:08;;;;;;;1.90;1.15;;;12.40;99.90;;;;;;4951723;29;20107;-85
2023/03/17 08:03:35;;;;;;;4.03;1.38;;;12.60;99.90;;;;;;4952128;29;20032;-85
2023/03/17 08:06:02;;;;;;;1.77;1.20;;;12.70;99.90;;;;;;4950994;28;20473;-85
2023/03/17 08:08:28;;;;;;;2.65;1.20;;;12.70;99.90;;;;;;4951388;28;20393;-84
2023/03/17 08:11:04;;;;;;;2.17;1.23;;;12.70;99.90;;;;;;4951368;28;20042;-84
2023/03/17 08:13:31;;;;;;;3.88;1.33;;;12.80;99.90;;;;;;4951223;28;20035;-84
2023/03/17 08:15:57;;;;;;;1.27;1.02;;;12.70;99.90;;;;;;4951771;28;20031;-84
2023/03/17 08:18:23;;;;;;;3.65;1.30;;;12.90;99.90;;;;;;4951576;28;20034;-84
2023/03/17 08:20:50;;;;;;;1.38;1.00;;;12.90;99.90;;;;;;4951634;28;20088;-84
2023/03/17 08:23:16;;;;;;;1.65;1.00;;;13.00;99.90;;;;;;4950955;29;20031;-85
2023/03/17 08:25:42;;;;;;;2.17;1.10;;;13.20;99.90;;;;;;4951646;28;20385;-84
2023/03/17 08:28:09;;;;;;;2.58;0.90;;;13.20;99.90;;;;;;4951414;28;20015;-84
2023/03/17 08:30:36;;;;;;;2.22;1.20;;;13.30;99.90;;;;;;4946852;29;20023;-83
2023/03/17 08:33:02;;;;;;;2.40;1.30;;;13.40;99.90;;;;;;4941434;28;20033;-84
2023/03/17 08:35:28;;;;;;;1.33;1.10;;;13.40;99.90;;;;;;4952078;28;20055;-84
2023/03/17 08:37:54;;;;;;;0.93;0.80;;;13.50;99.90;;;;;;4962302;28;20421;-84
2023/03/17 08:40:20;;;;;;;2.15;1.00;;;13.50;99.90;;;;;;4969902;28;20118;-84
2023/03/17 08:42:48;;;;;;;3.42;1.15;;;13.70;99.90;;;;;;4958615;28;20103;-85
2023/03/17 08:45:15;;;;;;;2.72;1.20;;;13.70;99.90;;;;;;4951148;28;20039;-84
2023/03/17 08:47:41;;;;;;;2.85;1.00;;;14.00;99.90;;;;;;4951457;28;20027;-84
2023/03/17 08:50:13;;;;;;;2.30;0.98;;;14.10;99.90;;;;;;4967015;28;20054;-83
2023/03/17 08:52:39;;;;;;;1.60;0.93;;;14.00;99.90;;;;;;4950958;28;20035;-83
2023/03/17 08:55:07;;;;;;;2.38;1.02;;;14.20;99.90;;;;;;4950782;28;20035;-84
2023/03/17 08:57:34;;;;;;;1.33;1.00;;;14.20;99.90;;;;;;4951168;28;20027;-83
2023/03/17 09:00:00;;;;;;;2.38;1.17;;;14.30;99.90;;;;;;4951126;28;20028;-84
2023/03/17 09:02:28;;;;;;;1.10;1.00;;;14.50;99.90;;;;;;4951425;28;20111;-84
2023/03/17 09:04:53;;;;;;;2.22;1.17;;;14.60;99.90;;;;;;4950919;28;20047;-84
2023/03/17 09:07:20;;;;;;;2.50;1.00;;;14.70;99.90;;;;;;4951510;28;20100;-84
2023/03/17 09:09:46;;;;;;;2.45;1.00;;;15.10;99.90;;;;;;4950555;28;20080;-84
2023/03/17 09:12:12;;;;;;;1.23;0.90;;;15.80;99.90;;;;;;4950875;28;20032;-84
2023/03/17 09:14:38;;;;;;;2.03;1.00;;;18.00;99.90;;;;;;4950952;28;20110;-84
2023/03/17 09:17:04;;;;;;;2.30;1.10;;;17.90;99.90;;;;;;4951135;28;20038;-83
2023/03/17 09:19:30;;;;;;;1.27;0.80;;;17.30;99.90;;;;;;4950874;28;20416;-84
2023/03/17 09:21:56;;;;;;;1.75;1.10;;;17.00;99.90;;;;;;4950956;28;20077;-84
2023/03/17 09:24:22;;;;;;;2.05;0.90;;;17.90;99.90;;;;;;4950173;28;20035;-84
2023/03/17 09:26:47;;;;;;;1.70;0.95;;;19.30;99.90;;;;;;4951196;28;20031;-84
2023/03/17 09:29:14;;;;;;;3.03;1.10;;;20.00;99.90;;;;;;4950614;28;20062;-84
2023/03/17 09:31:41;;;;;;;1.70;0.82;;;20.00;99.90;;;;;;4950864;28;20038;-84
2023/03/17 09:34:07;;;;;;;1.42;1.02;;;19.10;99.90;;;;;;4952207;28;20036;-84
2023/03/17 09:36:33;;;;;;;1.50;0.90;;;20.70;99.90;;;;;;4954017;28;20020;-84
2023/03/17 09:39:00;;;;;;;4.63;1.27;;;20.20;99.90;;;;;;4953424;28;20085;-84
2023/03/17 09:41:51;;;;;;;1.48;0.90;;;20.60;99.90;;;;;;4954097;28;20118;-84
2023/03/17 09:44:37;;;;;;;3.80;1.30;;;20.60;99.90;;;;;;4945987;28;20101;-84
2023/03/17 09:47:20;;;;;;;2.60;1.27;;;20.30;99.90;;;;;;4953650;28;20397;-84
2023/03/17 09:49:57;;;;;;;1.65;1.10;;;19.90;99.90;;;;;;4953636;28;20103;-84
2023/03/17 09:52:33;;;;;;;1.73;1.08;;;20.40;99.90;;;;;;4953624;28;20081;-84
2023/03/17 09:55:00;;;;;;;2.28;0.90;;;20.80;99.90;;;;;;4953313;28;20429;-84
2023/03/17 09:57:34;;;;;;;1.23;0.90;;;21.60;99.90;;;;;;4953712;28;20441;-84
2023/03/17 10:00:10;;;;;;;2.25;0.95;;;21.00;99.90;;;;;;4953620;28;20031;-84
2023/03/17 10:02:36;;;;;;;2.30;1.10;;;19.90;99.90;;;;;;4953599;28;20560;-84
2023/03/17 10:05:30;;;;;;;3.45;1.13;;;19.60;99.90;;;;;;4953638;28;20067;-84
2023/03/17 10:08:19;;;;;;;2.22;1.00;;;20.40;99.90;;;;;;4950833;29;20027;-84
2023/03/17 10:11:22;;;;;;;1.80;1.00;;;21.40;99.90;;;;;;4953783;28;20089;-84
2023/03/17 10:14:02;;;;;;;1.83;1.00;;;22.40;99.90;;;;;;4953837;28;20023;-84
2023/03/17 10:16:49;;;;;;;2.38;1.17;;;22.30;99.90;;;;;;4953250;28;20110;-83
2023/03/17 10:19:21;;;;;;;1.85;1.00;;;21.40;99.90;;;;;;4953280;28;20019;-84
2023/03/17 10:21:52;;;;;;;1.63;1.10;;;21.70;99.90;;;;;;4952951;28;20027;-84
2023/03/17 10:24:20;;;;;;;2.95;1.10;;;22.20;99.90;;;;;;4953499;28;20039;-84
2023/03/17 10:26:49;;;;;;;2.00;1.00;;;22.50;99.90;;;;;;4967807;28;20394;-84
2023/03/17 10:29:21;;;;;;;1.70;1.23;;;22.30;99.90;;;;;;4953305;28;20417;-84
2023/03/17 10:31:48;;;;;;;3.53;0.93;;;23.00;99.90;;;;;;4953469;28;20031;-85
2023/03/17 10:34:20;;;;;;;1.65;1.00;;;22.40;99.90;;;;;;4953139;28;20027;-84
2023/03/17 10:36:50;;;;;;;2.22;1.20;;;26.00;99.90;;;;;;4952566;28;20028;-84
2023/03/17 10:39:22;;;;;;;2.42;1.13;;;24.70;99.90;;;;;;4968216;28;20023;-84
2023/03/17 10:41:54;;;;;;;1.27;0.98;;;25.00;99.90;;;;;;4953098;28;20073;-84
2023/03/17 10:44:38;;;;;;;2.38;1.10;;;25.20;99.90;;;;;;4944850;28;20043;-85
2023/03/17 10:47:04;;;;;;;4.30;1.00;;;24.70;99.90;;;;;;4951111;28;20032;-85
2023/03/17 10:49:35;;;;;;;2.92;1.27;;;22.00;99.90;;;;;;4952734;28;20023;-84
2023/03/17 10:52:06;;;;;;;5.60;1.40;;;23.30;99.90;;;;;;4952352;28;20047;-84
2023/03/17 10:54:35;;;;;;;3.50;2.20;;;22.10;99.90;;;;;;4953284;28;20054;-84
2023/03/17 10:57:05;;;;;;;3.35;1.10;;;21.40;99.90;;;;;;4952681;28;20035;-84
2023/03/17 10:59:41;;;;;;;3.72;1.33;;;21.30;99.90;;;;;;4952776;28;20039;-84
2023/03/17 11:02:24;;;;;;;3.35;1.30;;;20.90;99.90;;;;;;4953220;28;20023;-84
2023/03/17 11:04:54;;;;;;;2.05;1.05;;;22.40;99.90;;;;;;4952511;28;20038;-84
2023/03/17 11:07:38;;;;;;;2.13;1.40;;;22.90;99.90;;;;;;4952143;28;20030;-84
2023/03/17 11:10:22;;;;;;;1.95;1.20;;;21.30;99.90;;;;;;4952453;28;20114;-84
2023/03/17 11:13:02;;;;;;;2.17;1.08;;;21.20;99.90;;;;;;4952840;28;20020;-84
2023/03/17 11:15:33;;;;;;;2.60;1.10;;;22.70;99.90;;;;;;4952578;28;20031;-84
2023/03/17 11:18:21;;;;;;;1.80;1.10;;;23.40;99.90;;;;;;4952730;28;20054;-84
2023/03/17 11:21:01;;;;;;;1.67;1.30;;;22.90;99.90;;;;;;4951793;28;20034;-85
2023/03/17 11:23:41;;;;;;;1.52;1.00;;;23.10;99.90;;;;;;4952136;28;20366;-84
2023/03/17 11:26:23;;;;;;;2.97;1.17;;;23.50;99.90;;;;;;4967000;28;20031;-84
2023/03/17 11:29:07;;;;;;;2.45;1.30;;;23.80;99.90;;;;;;4952639;28;20024;-84
2023/03/17 11:32:11;;;;;;;2.17;1.25;;;24.00;99.90;;;;;;4952157;28;20027;-84
2023/03/17 11:35:09;;;;;;;2.47;1.10;;;22.60;99.90;;;;;;4951619;28;20019;-84
2023/03/17 11:38:02;;;;;;;1.35;1.10;;;24.20;99.90;;;;;;4952190;28;20103;-84
2023/03/17 11:40:42;;;;;;;1.95;1.10;;;24.40;99.90;;;;;;4951877;28;20038;-84
2023/03/17 11:43:32;;;;;;;3.42;1.30;;;25.20;99.90;;;;;;4951515;28;20028;-84
2023/03/17 11:45:58;;;;;;;2.63;1.20;;;25.80;99.90;;;;;;4948431;29;20035;-84
2023/03/17 11:48:27;;;;;;;1.98;1.17;;;26.50;99.90;;;;;;4951851;28;20031;-84
2023/03/17 11:51:14;;;;;;;1.98;1.40;;;26.60;99.90;;;;;;4951577;28;20509;-85
2023/03/17 11:54:02;;;;;;;3.85;1.27;;;26.50;99.90;;;;;;4951980;28;20027;-84
2023/03/17 11:56:48;;;;;;;3.70;1.55;;;25.80;99.90;;;;;;4951419;29;20054;-85
2023/03/17 11:59:39;;;;;;;1.95;1.50;;;24.90;99.90;;;;;;4951890;28;20027;-84
2023/03/17 12:02:19;;;;;;;2.22;1.40;;;24.90;99.90;;;;;;4952006;28;20024;-84
2023/03/17 12:05:03;;;;;;;3.13;1.65;;;25.20;99.90;;;;;;4951321;28;20039;-82
2023/03/17 12:07:44;;;;;;;4.82;1.48;;;25.10;99.90;;;;;;4951753;28;20023;-84
2023/03/17 12:10:23;;;;;;;5.15;1.42;;;25.10;99.90;;;;;;4951495;28;20023;-85
2023/03/17 12:13:03;;;;;;;2.65;1.30;;;25.50;99.90;;;;;;4952192;28;20023;-84
2023/03/17 12:15:37;;;;;;;3.03;1.33;;;22.10;99.90;;;;;;4951687;28;20038;-84
2023/03/17 12:18:14;;;;;;;3.53;1.65;;;21.60;99.90;;;;;;4951020;28;20023;-85
2023/03/17 12:20:53;;;;;;;1.75;1.33;;;23.30;99.90;;;;;;4952010;28;20460;-84
2023/03/17 12:23:48;;;;;;;2.17;1.40;;;25.20;99.90;;;;;;4952069;28;20023;-84
2023/03/17 12:26:36;;;;;;;2.25;1.48;;;23.10;99.90;;;;;;4951843;28;20073;-84
2023/03/17 12:29:11;;;;;;;2.22;1.58;;;22.10;99.90;;;;;;4951042;28;20042;-84
2023/03/17 12:31:43;;;;;;;3.53;1.77;;;23.50;99.90;;;;;;4951808;28;20566;-84
2023/03/17 12:34:49;;;;;;;3.58;1.63;;;24.40;99.90;;;;;;4951353;28;20039;-84
2023/03/17 12:37:16;;;;;;;2.72;2.05;;;25.60;99.90;;;;;;4949361;29;20043;-85
2023/03/17 12:40:09;;;;;;;2.72;1.92;;;24.80;99.90;;;;;;4949189;28;20063;-85
2023/03/17 12:42:51;;;;;;;4.32;3.15;;;24.40;99.90;;;;;;4949172;29;20019;-84
2023/03/17 12:45:37;;;;;;;8.10;3.60;;;24.60;99.90;;;;;;4948948;29;20101;-84
2023/03/17 12:48:28;;;;;;;7.75;4.15;;;22.80;99.90;;;;;;4948605;29;20489;-84
2023/03/17 12:51:27;;;;;;;5.63;2.40;;;21.50;99.90;;;;;;4949005;29;20103;-84
2023/03/17 12:53:53;;;;;;;4.35;2.00;;;20.50;99.90;;;;;;4948933;29;20460;-84
2023/03/17 12:56:21;;;;;;;2.95;2.00;;;20.60;99.90;;;;;;4933258;29;20027;-84
2023/03/17 12:58:52;;;;;;;2.67;2.10;;;20.60;99.90;;;;;;4949068;29;20118;-84
2023/03/17 13:01:31;;;;;;;3.55;2.00;;;20.90;99.90;;;;;;4948324;29;20031;-83